createdAt,value
2022-12-06T00:00:05.090Z,8.4
2022-12-06T00:05:05.086Z,9.9
2022-12-06T00:10:05.099Z,9.4
2022-12-06T00:15:05.087Z,9.2
2022-12-06T00:20:05.083Z,9.2
2022-12-06T00:25:05.102Z,9.6
2022-12-06T00:30:05.108Z,8.6
2022-12-06T00:35:05.091Z,9.8
2022-12-06T00:40:05.091Z,8.8
2022-12-06T00:45:05.090Z,8.9
2022-12-06T00:50:05.088Z,8.9
2022-12-06T00:55:05.099Z,8.7
2022-12-06T01:00:05.083Z,9.3
2022-12-06T01:05:05.094Z,8.2
2022-12-06T01:10:05.094Z,8.4
2022-12-06T01:15:05.096Z,8.5
2022-12-06T01:20:05.170Z,8.5
2022-12-06T01:25:05.091Z,7.9
2022-12-06T01:30:05.085Z,7.8
2022-12-06T01:35:05.082Z,8.2
2022-12-06T01:40:05.090Z,7.2
2022-12-06T01:45:05.094Z,7.8
2022-12-06T01:50:05.089Z,7.8
2022-12-06T01:55:05.084Z,7.3
2022-12-06T02:00:05.087Z,8.1
2022-12-06T02:05:05.086Z,7.1
2022-12-06T02:10:05.233Z,7.5
2022-12-06T02:15:05.092Z,8.6
2022-12-06T02:20:05.085Z,8.6
2022-12-06T02:25:05.088Z,7.3
2022-12-06T02:30:05.085Z,8.1
2022-12-06T02:35:05.093Z,7.6
2022-12-06T02:40:05.107Z,7.7
2022-12-06T02:45:05.092Z,8.8
2022-12-06T02:50:05.095Z,8.8
2022-12-06T02:55:05.090Z,8.7
2022-12-06T03:00:05.089Z,9
2022-12-06T03:05:05.089Z,8.7
2022-12-06T03:10:05.093Z,8.6
2022-12-06T03:15:05.102Z,9.8
2022-12-06T03:20:05.082Z,9.8
2022-12-06T03:25:05.085Z,10.2
2022-12-06T03:30:05.110Z,9.8
2022-12-06T03:35:05.103Z,9.4
2022-12-06T03:40:05.093Z,9.2
2022-12-06T03:45:05.097Z,10.5
2022-12-06T03:50:05.087Z,10.5
2022-12-06T03:55:05.092Z,9.5
2022-12-06T04:00:05.090Z,10.2
2022-12-06T04:05:05.111Z,10.6
2022-12-06T04:10:05.092Z,10.4
2022-12-06T04:15:05.093Z,11.5
2022-12-06T04:20:05.226Z,11.5
2022-12-06T04:25:05.105Z,11.8
2022-12-06T04:30:05.095Z,11.5
2022-12-06T04:35:05.114Z,11
2022-12-06T04:40:05.126Z,11.8
2022-12-06T04:45:05.091Z,12.9
2022-12-06T04:50:05.081Z,12.9
2022-12-06T04:55:05.103Z,12.9
2022-12-06T05:00:05.143Z,12.8
2022-12-06T05:05:05.217Z,13.6
2022-12-06T05:10:05.087Z,14.4
2022-12-06T05:15:05.108Z,14
2022-12-06T05:20:05.078Z,14
2022-12-06T05:25:05.087Z,13.4
2022-12-06T05:30:05.092Z,15.5
2022-12-06T05:35:05.094Z,14.3
2022-12-06T05:40:05.090Z,14.7
2022-12-06T05:45:05.089Z,14.9
2022-12-06T05:50:05.084Z,14.9
2022-12-06T05:55:05.085Z,12.8
2022-12-06T06:00:05.082Z,13.7
2022-12-06T06:05:05.092Z,12.3
2022-12-06T06:10:05.092Z,12
2022-12-06T06:15:05.093Z,11.5
2022-12-06T06:20:05.340Z,11.5
2022-12-06T06:25:05.096Z,11.1
2022-12-06T06:30:05.097Z,8.5
2022-12-06T06:35:05.094Z,8.4
2022-12-06T06:40:05.085Z,8.2
2022-12-06T06:45:05.085Z,6.8
2022-12-06T06:50:05.094Z,6.8
2022-12-06T06:55:05.099Z,6.7
2022-12-06T07:00:05.097Z,5.9
2022-12-06T07:05:05.092Z,6
2022-12-06T07:10:05.083Z,5.6
2022-12-06T07:15:05.095Z,5.8
2022-12-06T07:20:05.093Z,5.8
2022-12-06T07:25:05.087Z,5.5
2022-12-06T07:30:05.109Z,5
2022-12-06T07:35:05.099Z,5.7
2022-12-06T07:40:05.097Z,5.6
2022-12-06T07:45:05.114Z,5.8
2022-12-06T07:50:05.107Z,5.8
2022-12-06T07:55:05.111Z,6.2
2022-12-06T08:00:05.091Z,7
2022-12-06T08:05:05.104Z,6.3
2022-12-06T08:10:05.093Z,6.3
2022-12-06T08:15:05.099Z,6.4
2022-12-06T08:20:05.094Z,6.4
2022-12-06T08:25:05.104Z,6.7
2022-12-06T08:30:05.105Z,6.6
2022-12-06T08:35:05.094Z,6.6
2022-12-06T08:40:05.089Z,6.8
2022-12-06T08:45:05.095Z,6.3
2022-12-06T08:50:05.088Z,6.3
2022-12-06T08:55:05.105Z,7
2022-12-06T09:00:05.084Z,6.8
2022-12-06T09:05:05.150Z,6.5
2022-12-06T09:10:05.095Z,6.5
2022-12-06T09:15:05.092Z,6.7
2022-12-06T09:20:06.240Z,6.7
2022-12-06T09:25:05.094Z,6.2
2022-12-06T09:30:05.087Z,6.6
2022-12-06T09:35:05.092Z,6.7
2022-12-06T09:40:05.092Z,6.7
2022-12-06T09:45:05.090Z,7.5
2022-12-06T09:50:05.091Z,7.5
2022-12-06T09:55:05.103Z,7.3
2022-12-06T10:00:09.782Z,7.9
2022-12-06T10:05:05.102Z,7.4
2022-12-06T10:10:05.081Z,6.5
2022-12-06T10:15:05.092Z,6.7
2022-12-06T10:20:05.087Z,6.7
2022-12-06T10:25:05.093Z,5.6
2022-12-06T10:30:05.169Z,7.2
2022-12-06T10:35:05.327Z,5.9
2022-12-06T10:40:05.312Z,7
2022-12-06T10:45:05.094Z,6.8
2022-12-06T10:50:05.091Z,6.8
2022-12-06T10:55:05.103Z,7
2022-12-06T11:00:07.894Z,8.3
2022-12-06T11:05:05.091Z,8
2022-12-06T11:10:05.101Z,6.9
2022-12-06T11:15:05.099Z,8.7
2022-12-06T11:20:05.081Z,8.7
2022-12-06T11:25:05.111Z,7.9
2022-12-06T11:30:05.101Z,8.2
2022-12-06T11:35:05.110Z,8.6
2022-12-06T11:40:05.111Z,8
2022-12-06T11:45:05.448Z,8.2
2022-12-06T11:50:09.318Z,8.2
2022-12-06T11:55:05.113Z,9.5
2022-12-06T12:00:05.097Z,7.7
2022-12-06T12:05:05.092Z,7.6
2022-12-06T12:10:05.094Z,7.2
2022-12-06T12:15:05.292Z,7.6
2022-12-06T12:20:05.090Z,7.6
2022-12-06T12:25:18.760Z,7.1
2022-12-06T12:30:05.080Z,7.2
2022-12-06T12:35:05.148Z,7.2
2022-12-06T12:40:10.449Z,6.5
2022-12-06T12:45:05.100Z,6
2022-12-06T12:50:05.097Z,6
2022-12-06T12:55:05.091Z,5.9
2022-12-06T13:00:05.094Z,6.3
2022-12-06T13:05:31.074Z,7.2
2022-12-06T13:10:05.084Z,6.6
2022-12-06T13:15:05.126Z,6.5
2022-12-06T13:20:05.408Z,6.5
2022-12-06T13:25:05.103Z,6.5
2022-12-06T13:30:05.087Z,6.8
2022-12-06T13:35:05.095Z,7.3
2022-12-06T13:40:05.287Z,6.8
2022-12-06T13:45:05.093Z,7.9
2022-12-06T13:50:05.202Z,7.9
2022-12-06T13:55:05.091Z,6.6
2022-12-06T14:00:05.087Z,6.4
2022-12-06T14:05:05.089Z,7.5
2022-12-06T14:10:05.089Z,7.4
2022-12-06T14:15:05.094Z,7.6
2022-12-06T14:20:05.094Z,7.6
2022-12-06T14:25:05.093Z,8.3
2022-12-06T14:30:05.094Z,7.4
2022-12-06T14:35:05.093Z,7.2
2022-12-06T14:40:22.876Z,6.9
2022-12-06T14:45:05.094Z,7
2022-12-06T14:50:05.092Z,7
2022-12-06T14:55:05.088Z,7.7
2022-12-06T15:00:16.042Z,8.2
2022-12-06T15:05:05.093Z,7.1
2022-12-06T15:10:05.137Z,8.7
2022-12-06T15:15:05.091Z,7.5
2022-12-06T15:20:05.216Z,7.5
2022-12-06T15:25:05.091Z,7.4
2022-12-06T15:30:05.361Z,7.9
2022-12-06T15:35:05.089Z,7.2
2022-12-06T15:40:05.079Z,8.7
2022-12-06T15:45:05.149Z,7.2
2022-12-06T15:50:05.179Z,7.2
2022-12-06T15:55:05.202Z,7.8
2022-12-06T16:00:05.126Z,7.4
2022-12-06T16:05:05.103Z,7.5
2022-12-06T16:10:05.087Z,7.3
2022-12-06T16:15:05.094Z,7.3
2022-12-06T16:20:05.094Z,7.3
2022-12-06T16:25:05.536Z,7
2022-12-06T16:30:05.095Z,10.8
2022-12-06T16:35:05.091Z,7.3
2022-12-06T16:40:05.103Z,7.6
2022-12-06T16:45:05.088Z,6.9
2022-12-06T16:50:05.089Z,6.9
2022-12-06T16:55:05.216Z,6.8
2022-12-06T17:00:05.084Z,7.3
2022-12-06T17:05:05.347Z,6.7
2022-12-06T17:10:05.086Z,6.5
2022-12-06T17:15:05.327Z,6.7
2022-12-06T17:20:05.094Z,6.7
2022-12-06T17:25:05.089Z,6.2
2022-12-06T17:30:05.088Z,6.6
2022-12-06T17:35:05.236Z,6.4
2022-12-06T17:40:05.089Z,6.1
2022-12-06T17:45:05.634Z,6.1
2022-12-06T17:50:05.531Z,6.1
2022-12-06T17:55:05.248Z,5.8
2022-12-06T18:00:05.086Z,6.1
2022-12-06T18:05:05.329Z,5.8
2022-12-06T18:10:05.080Z,6.1
2022-12-06T18:15:05.186Z,6.2
2022-12-06T18:20:05.094Z,6.2
2022-12-06T18:25:05.103Z,6.4
2022-12-06T18:30:05.269Z,6.2
2022-12-06T18:35:05.103Z,7
2022-12-06T18:40:05.177Z,7.4
2022-12-06T18:45:05.417Z,6.7
2022-12-06T18:50:05.083Z,6.7
2022-12-06T18:55:05.086Z,6.6
2022-12-06T19:00:05.364Z,6.7
2022-12-06T19:05:05.086Z,7.3
2022-12-06T19:10:05.285Z,7.2
2022-12-06T19:15:05.091Z,7
2022-12-06T19:20:05.103Z,7
2022-12-06T19:25:05.092Z,6.6
2022-12-06T19:30:05.382Z,7
2022-12-06T19:35:08.285Z,7.6
2022-12-06T19:40:05.084Z,7.5
2022-12-06T19:45:05.185Z,8.1
2022-12-06T19:50:05.372Z,8.1
2022-12-06T19:55:05.099Z,9
2022-12-06T20:00:05.093Z,8.9
2022-12-06T20:05:05.113Z,10.6
2022-12-06T20:10:05.083Z,9.6
2022-12-06T20:15:05.095Z,9.4
2022-12-06T20:20:05.088Z,9.4
2022-12-06T20:25:05.098Z,8.4
2022-12-06T20:30:05.085Z,9.8
2022-12-06T20:35:05.094Z,9.5
2022-12-06T20:40:05.084Z,10.5
2022-12-06T20:45:05.085Z,9.6
2022-12-06T20:50:05.098Z,9.6
2022-12-06T20:55:05.134Z,9.3
2022-12-06T21:00:07.506Z,9.4
2022-12-06T21:05:05.108Z,9.7
2022-12-06T21:10:05.095Z,9.6
2022-12-06T21:15:05.101Z,11.3
2022-12-06T21:20:05.110Z,11.3
2022-12-06T21:25:07.335Z,9.8
2022-12-06T21:30:05.095Z,10.5
2022-12-06T21:35:05.086Z,11.3
2022-12-06T21:40:05.242Z,9.6
2022-12-06T21:45:05.097Z,10.9
2022-12-06T21:50:05.092Z,10.9
2022-12-06T21:55:05.098Z,10.6
2022-12-06T22:00:05.171Z,10.2
2022-12-06T22:05:05.097Z,10.3
2022-12-06T22:10:05.090Z,10.2
2022-12-06T22:15:05.245Z,11.3
2022-12-06T22:20:05.168Z,11.3
2022-12-06T22:25:05.096Z,11.1
2022-12-06T22:30:05.090Z,11.1
2022-12-06T22:35:05.096Z,11.6
2022-12-06T22:40:05.148Z,11.5
2022-12-06T22:45:05.252Z,11.7
2022-12-06T22:50:05.119Z,11.7
2022-12-06T22:55:05.093Z,11.8
2022-12-06T23:00:05.263Z,12.3
2022-12-06T23:05:05.092Z,11.5
2022-12-06T23:10:05.100Z,11.3
2022-12-06T23:15:05.085Z,11.7
2022-12-06T23:20:05.096Z,11.7
2022-12-06T23:25:05.086Z,13.8
2022-12-06T23:30:05.089Z,11.9
2022-12-06T23:35:05.084Z,11.7
2022-12-06T23:40:05.085Z,13.3
2022-12-06T23:45:05.093Z,11.9
2022-12-06T23:50:05.095Z,11.9
2022-12-06T23:55:05.105Z,11.5
